Date,TemperatureHighF,TemperatureAvgF,TemperatureLowF,DewpointHighF,DewpointAvgF,DewpointLowF,HumidityHigh,HumidityAvg,HumidityLow,PressureMaxIn,PressureMinIn,WindSpeedMaxMPH,WindSpeedAvgMPH,GustSpeedMaxMPH,PrecipitationSumIn
2013-1-1,10,7,5,-100,-100,-100,0,0,100,0.00,40.00,20,13,32,0.00
2013-1-2,14,10,6,-100,-100,-100,0,0,100,0.00,40.00,15,11,23,0.00
2013-1-3,30,20,7,-100,-100,-100,0,0,100,0.00,40.00,15,9,19,0.00
2013-1-4,30,26,18,-100,-100,-100,0,0,100,0.00,40.00,12,8,16,0.00
2013-1-5,35,26,18,-100,-100,-100,0,0,100,0.00,40.00,17,8,31,0.00
2013-1-6,29,26,23,-100,-100,-100,0,0,100,0.00,40.00,16,8,35,0.00
2013-1-7,25,21,15,-100,-100,-100,0,0,100,0.00,40.00,19,9,28,0.00
2013-1-8,20,18,15,-100,-100,-100,0,0,100,0.00,40.00,11,4,20,0.00
2013-1-9,36,30,20,-100,-100,-100,0,0,100,0.00,40.00,15,10,37,0.00
2013-1-10,29,18,3,-100,-100,-100,0,0,100,0.00,40.00,22,16,58,0.00
2013-1-11,1,-3,-5,-100,-100,-100,0,0,100,0.00,40.00,17,12,33,0.00
2013-1-12,-4,-8,-13,-100,-100,-100,0,0,100,0.00,40.00,14,9,22,0.00
2013-1-13,-13,-14,-15,-100,-100,-100,0,0,100,0.00,40.00,6,4,9,0.00
2013-1-14,-1,-9,-14,-100,-100,-100,0,0,100,0.00,40.00,14,6,23,0.00
2013-1-15,16,10,-5,-100,-100,-100,0,0,100,0.00,40.00,16,13,31,0.00
2013-1-16,23,18,12,-100,-100,-100,0,0,100,0.00,40.00,19,15,34,0.00
2013-1-17,29,25,20,-100,-100,-100,0,0,100,0.00,40.00,15,10,25,0.00
2013-1-18,31,27,24,-100,-100,-100,0,0,100,0.00,40.00,11,6,17,0.00
2013-1-19,31,27,23,-100,-100,-100,0,0,100,0.00,40.00,9,7,21,0.00
2013-1-20,29,25,22,-100,-100,-100,0,0,100,0.00,40.00,12,7,21,0.00
2013-1-21,31,27,23,-100,-100,-100,0,0,100,0.00,40.00,12,10,19,0.00
2013-1-22,40,34,29,-100,-100,-100,0,0,100,0.00,40.00,17,13,23,0.00
2013-1-23,39,35,30,-100,-100,-100,0,0,100,0.00,40.00,17,12,30,0.00
2013-1-24,32,27,24,-100,-100,-100,0,0,100,0.00,40.00,13,8,24,0.00
2013-1-25,27,24,23,-100,-100,-100,0,0,100,0.00,40.00,7,3,12,0.00
2013-1-26,31,27,24,-100,-100,-100,0,0,100,0.00,40.00,13,6,22,0.00
2013-1-27,25,19,9,-100,-100,-100,0,0,100,0.00,40.00,16,9,34,0.00
2013-1-28,8,4,-1,-100,-100,-100,0,0,100,0.00,40.00,15,8,21,0.00
2013-1-29,9,5,1,-100,-100,-100,0,0,100,0.00,40.00,11,7,22,0.00
2013-1-30,17,12,7,-100,-100,-100,0,0,100,0.00,40.00,11,9,33,0.00
2013-1-31,17,16,15,-100,-100,-100,0,0,100,0.00,40.00,16,10,26,0.00
2013-2-1,21,18,14,-100,-100,-100,0,0,100,0.00,40.00,15,9,25,0.00
2013-2-2,31,22,13,-100,-100,-100,0,0,100,0.00,40.00,15,8,22,0.00
2013-2-3,28,25,20,-100,-100,-100,0,0,100,0.00,40.00,14,10,22,0.00
2013-2-4,25,21,18,-100,-100,-100,0,0,100,0.00,40.00,17,12,24,0.00
2013-2-5,35,28,23,-100,-100,-100,0,0,100,0.00,40.00,16,9,22,0.00
2013-2-6,28,20,14,-100,-100,-100,0,0,100,0.00,40.00,14,7,18,0.00
2013-2-7,29,22,15,-100,-100,-100,0,0,100,0.00,40.00,14,8,27,0.00
2013-2-8,20,16,12,-100,-100,-100,0,0,100,0.00,40.00,20,11,33,0.00
2013-2-9,13,9,6,-100,-100,-100,0,0,100,0.00,40.00,15,6,21,0.00
2013-2-10,22,10,3,-100,-100,-100,0,0,100,0.00,40.00,7,3,19,0.00
2013-2-11,9,3,-1,-100,-100,-100,0,0,100,0.00,40.00,11,4,20,0.00
2013-2-12,12,7,1,-100,-100,-100,0,0,100,0.00,40.00,10,7,21,0.00
2013-2-13,20,15,11,-100,-100,-100,0,0,100,0.00,40.00,13,8,28,0.00
2013-2-14,20,15,10,-100,-100,-100,0,0,100,0.00,40.00,14,8,23,0.00
2013-2-15,24,16,10,-100,-100,-100,0,0,100,0.00,40.00,9,6,19,0.00
2013-2-16,32,26,21,-100,-100,-100,0,0,100,0.00,40.00,14,12,23,0.00
2013-2-17,28,17,5,-100,-100,-100,0,0,100,0.00,40.00,15,12,36,0.00
2013-2-18,20,12,4,-100,-100,-100,0,0,100,0.00,40.00,10,6,19,0.00
2013-2-19,24,20,14,-100,-100,-100,0,0,100,0.00,40.00,14,9,31,0.00
2013-2-20,18,16,13,-100,-100,-100,0,0,100,0.00,40.00,15,8,24,0.00
2013-2-21,17,9,3,-100,-100,-100,0,0,100,0.00,40.00,14,9,20,0.00
2013-2-22,14,7,2,-100,-100,-100,0,0,100,0.00,40.00,20,10,29,0.00
2013-2-23,15,8,2,-100,-100,-100,0,0,100,0.00,40.00,17,11,36,0.00
2013-2-24,18,6,1,-100,-100,-100,0,0,100,0.00,40.00,13,7,25,0.00
2013-2-25,10,5,3,-100,-100,-100,0,0,100,0.00,40.00,15,10,21,0.00
2013-2-26,4,2,1,-100,-100,-100,0,0,100,0.00,40.00,6,6,17,0.00
2013-2-27,16,9,1,-100,-100,-100,0,0,100,0.00,40.00,9,6,14,0.00
2013-2-28,19,14,11,-100,-100,-100,0,0,100,0.00,40.00,13,9,22,0.00